Time;durP1;ratioP1;P1;durP2;ratioP2;P2;SDS_P1;SDS_P2;PMS_P1;PMS_P2;Temp;Humidity;BMP_temperature;BMP_pressure;BME280_temperature;BME280_humidity;BME280_pressure;Samples;Min_cycle;Max_cycle;Signal;HPM_P1;HPM_P2
2023/07/10 00:00:52;;;;;;;;;3.00;3.00;;;;;-146.67;39.83;74535.84;5097213;27;62388;-83
2023/07/10 00:03:18;;;;;;;;;3.25;3.25;;;;;-146.67;39.72;74543.84;5098221;27;61762;-83
2023/07/10 00:05:43;;;;;;;;;5.50;3.00;;;;;-146.67;39.93;74545.81;5096867;27;64472;-83
2023/07/10 00:08:09;;;;;;;;;4.00;3.00;;;;;-146.67;40.05;74557.81;5097252;27;61808;-83
2023/07/10 00:10:35;;;;;;;;;2.75;2.75;;;;;-146.67;39.91;74575.78;5097334;27;61850;-83
2023/07/10 00:13:00;;;;;;;;;4.00;4.00;;;;;-146.67;40.53;74583.75;5097783;27;61999;-83
2023/07/10 00:15:26;;;;;;;;;4.25;3.25;;;;;-146.67;40.55;74593.75;5098274;27;62250;-83
2023/07/10 00:17:52;;;;;;;;;8.25;6.25;;;;;-146.67;40.93;74605.72;5100304;27;61805;-83
2023/07/10 00:20:23;;;;;;;;;6.75;5.00;;;;;-146.67;40.98;74601.72;5103011;27;61787;-83
2023/07/10 00:22:49;;;;;;;;;6.00;4.50;;;;;-146.67;40.83;74621.69;5103591;27;62192;-83
2023/07/10 00:25:15;;;;;;;;;2.00;1.00;;;;;-146.67;40.90;74627.69;5116813;27;61811;-83
2023/07/10 00:27:43;;;;;;;;;3.50;3.50;;;;;-146.67;40.91;74633.69;5100772;27;61985;-82
2023/07/10 00:30:20;;;;;;;;;5.50;4.00;;;;;-146.67;40.89;74627.69;5099796;27;61801;-83
2023/07/10 00:32:47;;;;;;;;;6.00;3.25;;;;;-146.67;40.95;74623.69;5084037;28;61865;-83
2023/07/10 00:35:17;;;;;;;;;6.25;4.00;;;;;-146.67;41.13;74615.72;5082731;28;64337;-82
2023/07/10 00:37:46;;;;;;;;;3.00;3.00;;;;;-146.67;40.67;74607.72;5100891;27;61805;-83
2023/07/10 00:40:22;;;;;;;;;4.50;4.00;;;;;-146.67;40.48;74595.75;5100376;27;61891;-83
2023/07/10 00:42:55;;;;;;;;;4.00;4.00;;;;;-146.67;40.85;74611.72;5101358;27;62090;-83
2023/07/10 00:45:21;;;;;;;;;4.25;4.25;;;;;-146.67;41.16;74621.69;5100599;27;63007;-83
2023/07/10 00:48:06;;;;;;;;;6.50;4.75;;;;;-146.67;41.01;74635.66;5104633;27;61800;-83
2023/07/10 00:50:41;;;;;;;;;4.50;3.00;;;;;-146.67;41.20;74641.66;5121201;27;62071;-83
2023/07/10 00:53:23;;;;;;;;;7.00;4.75;;;;;-146.67;41.24;74653.63;5121241;27;62271;-83
2023/07/10 00:55:52;;;;;;;;;5.25;3.75;;;;;-146.67;41.37;74647.66;5120121;27;62528;-83
2023/07/10 00:58:28;;;;;;;;;2.25;2.25;;;;;-146.67;41.24;74631.69;5099746;27;61952;-83
2023/07/10 01:01:04;;;;;;;;;3.00;3.00;;;;;-146.67;41.08;74631.69;5064008;28;62069;-83
2023/07/10 01:03:30;;;;;;;;;3.50;3.25;;;;;-146.67;41.30;74629.69;5097653;27;61827;-83
2023/07/10 01:05:59;;;;;;;;;5.00;5.00;;;;;-146.67;41.07;74625.69;5064736;28;62581;-83
2023/07/10 01:08:26;;;;;;;;;4.75;3.75;;;;;-146.67;41.09;74621.69;5082918;28;62023;-83
2023/07/10 01:10:51;;;;;;;;;5.50;4.00;;;;;-146.67;41.37;74633.69;5084465;27;62048;-83
2023/07/10 01:13:17;;;;;;;;;2.00;2.00;;;;;-146.67;41.14;74635.66;5099543;27;62120;-83
2023/07/10 01:15:42;;;;;;;;;5.00;3.00;;;;;-146.67;41.63;74639.66;5099763;27;65021;-82
2023/07/10 01:18:11;;;;;;;;;5.50;3.00;;;;;-146.67;41.28;74629.69;5082352;28;61961;-83
2023/07/10 01:20:51;;;;;;;;;3.25;3.25;;;;;-146.67;41.17;74637.66;5090915;27;62079;-83
2023/07/10 01:23:18;;;;;;;;;4.50;3.50;;;;;-146.67;41.48;74655.63;5095746;27;61856;-83
2023/07/10 01:26:04;;;;;;;;;5.00;4.00;;;;;-146.67;41.29;74663.63;5061147;28;62023;-83
2023/07/10 01:28:34;;;;;;;;;7.00;3.00;;;;;-146.67;41.57;74673.59;5060242;28;61865;-83
2023/07/10 01:31:03;;;;;;;;;3.25;2.75;;;;;-146.67;41.54;74679.59;5061096;28;61826;-83
2023/07/10 01:33:35;;;;;;;;;4.00;4.00;;;;;-146.67;41.32;74683.59;5061714;28;62321;-82
2023/07/10 01:36:02;;;;;;;;;6.00;3.25;;;;;-146.67;41.55;74679.59;5063119;28;61892;-83
2023/07/10 01:38:31;;;;;;;;;3.00;3.00;;;;;-146.67;41.36;74663.63;5068907;27;62175;-82
2023/07/10 01:41:00;;;;;;;;;2.00;2.00;;;;;-146.67;41.15;74663.63;5063425;28;61934;-83
2023/07/10 01:43:25;;;;;;;;;5.00;4.75;;;;;-146.67;41.18;74657.63;5061514;28;62206;-83
2023/07/10 01:45:51;;;;;;;;;2.50;2.50;;;;;-146.67;41.24;74665.63;5061842;28;62092;-83
2023/07/10 01:48:20;;;;;;;;;3.50;3.50;;;;;-146.67;40.98;74663.63;5061530;28;61952;-83
2023/07/10 01:50:45;;;;;;;;;4.00;4.00;;;;;-146.67;41.01;74663.63;5062193;28;61989;-83
2023/07/10 01:53:11;;;;;;;;;2.50;2.50;;;;;-146.67;41.06;74671.59;5071178;28;61753;-83
2023/07/10 01:55:44;;;;;;;;;5.00;2.75;;;;;-146.67;41.19;74679.59;5098414;27;62181;-83
2023/07/10 01:58:11;;;;;;;;;3.50;3.25;;;;;-146.67;41.10;74691.56;5098997;27;61974;-83
2023/07/10 02:00:38;;;;;;;;;3.00;1.75;;;;;-146.67;41.16;74703.56;5095542;27;61787;-83
2023/07/10 02:03:03;;;;;;;;;2.00;2.00;;;;;-146.67;41.21;74719.53;5062193;28;61677;-83
2023/07/10 02:05:29;;;;;;;;;2.50;2.50;;;;;-146.67;41.54;74727.50;5062885;28;61960;-83
2023/07/10 02:07:54;;;;;;;;;2.50;2.50;;;;;-146.67;41.63;74737.50;5062234;28;61738;-83
2023/07/10 02:10:20;;;;;;;;;5.00;2.00;;;;;-146.67;41.65;74743.47;5095043;27;61928;-82
2023/07/10 02:12:46;;;;;;;;;3.75;3.75;;;;;-146.67;41.69;74755.47;5061084;28;61803;-82
2023/07/10 02:15:12;;;;;;;;;4.50;3.50;;;;;-146.67;41.71;74759.47;5061001;28;62927;-83
2023/07/10 02:17:37;;;;;;;;;3.25;3.25;;;;;-146.67;41.71;74763.44;5060311;28;62046;-83
2023/07/10 02:20:03;;;;;;;;;1.50;1.50;;;;;-146.67;41.93;74771.44;5076245;28;62242;-83
2023/07/10 02:22:29;;;;;;;;;1.75;1.75;;;;;-146.67;41.76;74763.44;5078650;28;61965;-83
2023/07/10 02:24:54;;;;;;;;;3.25;3.25;;;;;-146.67;41.85;74767.44;5081034;28;62085;-83
2023/07/10 02:27:20;;;;;;;;;3.00;3.00;;;;;-146.67;41.77;74751.47;5080961;28;61876;-82
2023/07/10 02:29:46;;;;;;;;;3.50;3.50;;;;;-146.67;41.74;74743.47;5081766;27;61959;-83
2023/07/10 02:32:11;;;;;;;;;5.50;4.00;;;;;-146.67;41.57;74737.50;5082128;28;62141;-83
2023/07/10 02:34:37;;;;;;;;;3.00;3.00;;;;;-146.67;41.75;74727.50;5081264;27;63841;-82
2023/07/10 02:37:03;;;;;;;;;3.00;3.00;;;;;-146.67;41.62;74737.50;5080663;28;61812;-83
2023/07/10 02:39:28;;;;;;;;;3.75;2.50;;;;;-146.67;41.68;74737.50;5081840;27;61866;-83
2023/07/10 02:41:54;;;;;;;;;3.00;2.25;;;;;-146.67;41.90;74749.47;5115198;27;61824;-83
2023/07/10 02:44:20;;;;;;;;;3.50;2.00;;;;;-146.67;42.07;74761.44;5081096;28;64375;-83
2023/07/10 02:46:45;;;;;;;;;2.75;2.75;;;;;-146.67;42.27;74773.44;5098916;27;61872;-83
2023/07/10 02:49:11;;;;;;;;;2.50;1.50;;;;;-146.67;42.49;74775.44;5080343;27;61860;-82
2023/07/10 02:51:36;;;;;;;;;3.00;3.00;;;;;-146.67;42.50;74789.41;5083389;27;61837;-82
2023/07/10 02:54:10;;;;;;;;;2.75;2.75;;;;;-146.67;42.23;74777.44;5115257;27;64044;-82
2023/07/10 02:56:35;;;;;;;;;2.00;2.00;;;;;-146.67;42.25;74779.41;5079874;28;61952;-82
2023/07/10 02:59:01;;;;;;;;;2.50;2.50;;;;;-146.67;42.35;74789.41;5098665;27;61844;-82
2023/07/10 03:01:27;;;;;;;;;7.25;3.50;;;;;-146.67;42.31;74791.41;5082895;27;61774;-82
2023/07/10 03:03:52;;;;;;;;;3.50;3.50;;;;;-146.67;42.43;74797.38;5115212;27;62449;-82
2023/07/10 03:06:19;;;;;;;;;5.50;4.75;;;;;-146.67;42.43;74801.38;5081230;28;62174;-82
2023/07/10 03:08:45;;;;;;;;;2.75;2.75;;;;;-146.67;42.23;74793.41;5082761;28;61851;-82
2023/07/10 03:11:13;;;;;;;;;5.00;5.00;;;;;-146.67;42.31;74797.38;5096831;27;61939;-82
2023/07/10 03:13:38;;;;;;;;;5.75;4.00;;;;;-146.67;42.40;74809.38;5097945;27;62325;-83
2023/07/10 03:16:07;;;;;;;;;3.25;3.25;;;;;-146.67;42.33;74809.38;5098158;27;61834;-83
2023/07/10 03:18:32;;;;;;;;;5.25;3.75;;;;;-146.67;42.46;74813.38;5095629;27;61995;-82
2023/07/10 03:20:58;;;;;;;;;6.50;3.50;;;;;-146.67;42.55;74817.34;5098023;27;61810;-83
2023/07/10 03:23:24;;;;;;;;;6.00;3.50;;;;;-146.67;42.46;74819.34;5114695;27;62039;-82
2023/07/10 03:25:50;;;;;;;;;3.75;3.75;;;;;-146.67;42.28;74815.38;5079430;28;62810;-83
2023/07/10 03:28:15;;;;;;;;;3.00;3.00;;;;;-146.67;42.35;74819.34;5081536;28;61993;-83
2023/07/10 03:30:42;;;;;;;;;5.25;4.00;;;;;-146.67;42.48;74815.38;5081466;28;61798;-83
2023/07/10 03:33:08;;;;;;;;;6.00;3.00;;;;;-146.67;42.32;74819.34;5079614;28;62264;-83
2023/07/10 03:35:34;;;;;;;;;3.75;3.25;;;;;-146.67;42.60;74821.34;5081121;28;61761;-83
2023/07/10 03:37:59;;;;;;;;;4.75;4.75;;;;;-146.67;42.58;74821.34;5081196;28;61931;-83
2023/07/10 03:40:25;;;;;;;;;5.50;4.50;;;;;-146.67;42.48;74831.34;5081823;27;61725;-82
2023/07/10 03:42:51;;;;;;;;;6.50;5.50;;;;;-146.67;42.46;74835.31;5079674;27;62433;-83
2023/07/10 03:45:16;;;;;;;;;3.75;3.75;;;;;-146.67;42.48;74837.31;5080861;28;61826;-83
2023/07/10 03:47:42;;;;;;;;;3.50;3.50;;;;;-146.67;42.26;74835.31;5093830;27;61962;-83
2023/07/10 03:50:09;;;;;;;;;4.25;3.00;;;;;-146.67;42.46;74845.31;5101476;27;61907;-83
2023/07/10 03:52:35;;;;;;;;;5.50;4.50;;;;;-146.67;42.41;74839.31;5085460;27;61953;-83
2023/07/10 03:55:01;;;;;;;;;5.00;4.00;;;;;-146.67;42.45;74841.31;5099515;27;61791;-83
2023/07/10 03:57:26;;;;;;;;;4.75;4.25;;;;;-146.67;42.38;74845.31;5101557;27;62027;-83
2023/07/10 03:59:52;;;;;;;;;5.00;4.00;;;;;-146.67;42.56;74847.31;5084960;27;61947;-83
2023/07/10 04:02:18;;;;;;;;;3.50;3.00;;;;;-146.67;42.32;74851.31;5100529;27;63666;-83
2023/07/10 04:04:44;;;;;;;;;2.75;1.75;;;;;-146.67;42.36;74837.31;5085778;28;61876;-83
2023/07/10 04:07:10;;;;;;;;;7.50;4.00;;;;;-146.67;42.39;74833.31;5100091;27;61824;-83
2023/07/10 04:09:36;;;;;;;;;3.00;3.00;;;;;-146.67;42.13;74825.34;5101146;27;61723;-83
2023/07/10 04:12:02;;;;;;;;;3.00;3.00;;;;;-146.67;42.25;74823.34;5100370;27;64311;-83
2023/07/10 04:14:27;;;;;;;;;5.75;3.75;;;;;-146.67;42.17;74823.34;5084015;28;61843;-83
2023/07/10 04:16:53;;;;;;;;;2.75;1.75;;;;;-146.67;42.27;74831.34;5101617;27;61822;-83
2023/07/10 04:19:20;;;;;;;;;4.00;4.00;;;;;-146.67;42.48;74837.31;5093546;27;62005;-84
2023/07/10 04:21:46;;;;;;;;;3.50;3.00;;;;;-146.67;42.49;74841.31;5099066;27;64762;-83
2023/07/10 04:24:12;;;;;;;;;5.00;4.50;;;;;-146.67;42.45;74837.31;5100985;27;61880;-83
2023/07/10 04:26:38;;;;;;;;;4.00;3.00;;;;;-146.67;42.40;74835.31;5083270;28;62272;-83
2023/07/10 04:29:05;;;;;;;;;4.00;4.00;;;;;-146.67;42.37;74833.31;5118720;27;61804;-83
2023/07/10 04:31:32;;;;;;;;;3.00;3.00;;;;;-146.67;42.43;74839.31;5100102;27;62193;-83
2023/07/10 04:33:58;;;;;;;;;3.00;2.00;;;;;-146.67;42.48;74833.31;5085621;27;61808;-83
2023/07/10 04:36:25;;;;;;;;;3.00;3.00;;;;;-146.67;42.41;74831.34;5119467;27;61943;-83
2023/07/10 04:38:51;;;;;;;;;3.75;3.00;;;;;-146.67;42.29;74829.34;5121686;27;61780;-83
2023/07/10 04:41:20;;;;;;;;;3.00;3.00;;;;;-146.67;42.33;74831.34;5119987;27;62436;-83
2023/07/10 04:43:46;;;;;;;;;5.25;4.00;;;;;-146.67;42.54;74839.31;5121529;27;61851;-83
2023/07/10 04:46:13;;;;;;;;;6.00;3.50;;;;;-146.67;42.32;74827.34;5105250;27;62424;-83
2023/07/10 04:48:39;;;;;;;;;2.75;2.75;;;;;-146.67;42.37;74827.34;5120162;27;61887;-83
2023/07/10 04:51:07;;;;;;;;;4.75;4.00;;;;;-146.67;42.41;74839.31;5119318;27;62908;-83
2023/07/10 04:53:34;;;;;;;;;5.00;3.75;;;;;-146.67;42.21;74837.31;5120756;27;62106;-83
2023/07/10 04:56:03;;;;;;;;;4.50;2.50;;;;;-146.67;42.18;74843.31;5120822;27;61916;-83
2023/07/10 04:58:29;;;;;;;;;4.00;2.50;;;;;-146.67;41.96;74851.31;5121492;27;61816;-82
2023/07/10 05:00:57;;;;;;;;;3.00;2.00;;;;;-146.67;42.01;74849.31;5119927;27;62590;-86
2023/07/10 05:03:24;;;;;;;;;3.00;3.00;;;;;-146.67;41.99;74841.31;5120672;27;61787;-83
2023/07/10 05:05:57;;;;;;;;;2.00;2.00;;;;;-146.67;41.48;74829.34;5107510;27;61845;-83
2023/07/10 05:08:24;;;;;;;;;5.00;2.00;;;;;-146.67;41.50;74827.34;5100926;27;62162;-83
2023/07/10 05:10:50;;;;;;;;;4.50;3.00;;;;;-146.67;41.28;74817.34;5099120;27;64137;-80
2023/07/10 05:13:19;;;;;;;;;3.25;2.00;;;;;-146.67;40.94;74815.38;5100352;27;61875;-80
2023/07/10 05:21:42;;;;;;;;;3.00;2.00;;;;;-146.67;40.98;74819.34;3384924;25;61701;-80
2023/07/10 05:24:08;;;;;;;;;3.75;2.50;;;;;-146.67;40.78;74815.38;5063379;28;61909;-80
2023/07/10 05:26:34;;;;;;;;;2.25;2.25;;;;;-146.67;40.90;74803.38;5063107;28;61892;-80
2023/07/10 05:29:00;;;;;;;;;1.50;1.50;;;;;-146.67;40.75;74803.38;5064156;28;62008;-79
2023/07/10 05:31:25;;;;;;;;;3.25;2.00;;;;;-146.67;40.55;74785.41;5070883;28;62116;-81
2023/07/10 05:33:51;;;;;;;;;2.25;2.25;;;;;-146.67;40.52;74771.44;5063274;28;62353;-80
2023/07/10 05:36:17;;;;;;;;;3.50;2.00;;;;;-146.67;40.09;74755.47;5062830;28;61866;-79
2023/07/10 05:38:48;;;;;;;;;2.25;2.25;;;;;-146.67;39.82;74731.50;5079787;27;62127;-80
2023/07/10 05:41:17;;;;;;;;;2.50;2.50;;;;;-146.67;39.39;74711.53;5070642;28;62897;-80
2023/07/10 05:43:43;;;;;;;;;5.00;3.00;;;;;-146.67;39.02;74649.66;5082662;27;61879;-80
2023/07/10 05:46:08;;;;;;;;;2.00;2.00;;;;;-146.67;37.76;74569.78;5082876;27;61799;-79
2023/07/10 05:48:34;;;;;;;;;3.75;2.50;;;;;-146.67;37.37;74521.88;5084328;28;61961;-85
2023/07/10 05:51:00;;;;;;;;;3.50;2.50;;;;;-146.67;37.01;74456.00;5080037;28;63004;-81
2023/07/10 05:53:25;;;;;;;;;2.00;2.00;;;;;-146.67;36.56;74424.03;5099769;27;61807;-79
2023/07/10 05:55:53;;;;;;;;;3.00;3.00;;;;;-146.67;36.24;74444.00;5082488;27;61844;-75
2023/07/10 05:58:20;;;;;;;;;3.50;2.00;;;;;-146.67;36.64;74454.00;5079568;28;61773;-75
2023/07/10 06:00:48;;;;;;;;;2.50;2.50;;;;;-146.67;36.54;74390.09;5078472;28;64581;-75
2023/07/10 06:03:14;;;;;;;;;3.00;3.00;;;;;-146.67;36.25;74410.06;5063268;28;61789;-75
2023/07/10 06:05:39;;;;;;;;;3.00;3.00;;;;;-146.67;36.42;74404.09;5079106;27;61926;-75
2023/07/10 06:08:05;;;;;;;;;3.00;3.00;;;;;-146.67;36.26;74410.06;5079326;27;62120;-75
2023/07/10 06:10:33;;;;;;;;;6.75;2.00;;;;;-146.67;36.34;74426.03;5078641;28;63511;-75
2023/07/10 06:12:58;;;;;;;;;4.00;2.33;;;;;-146.67;36.47;74440.00;5062100;28;61962;-74
2023/07/10 06:15:23;;;;;;;;;3.33;2.00;;;;;-146.67;36.33;74444.00;5063302;28;61693;-74
2023/07/10 06:17:49;;;;;;;;;2.50;2.50;;;;;-146.67;36.49;74442.00;5063400;28;61727;-75
2023/07/10 06:20:15;;;;;;;;;2.00;2.00;;;;;-146.67;36.61;74446.00;5084860;27;64955;-74
2023/07/10 06:22:40;;;;;;;;;1.75;1.50;;;;;-146.67;36.16;74434.03;5083878;28;62194;-75
2023/07/10 06:25:06;;;;;;;;;2.00;2.00;;;;;-146.67;36.32;74446.00;5082091;28;62058;-75
2023/07/10 06:27:31;;;;;;;;;4.00;2.00;;;;;-146.67;36.32;74414.06;5083596;27;61863;-75
2023/07/10 06:29:58;;;;;;;;;4.33;2.33;;;;;-146.67;35.46;74358.16;5083098;27;62737;-82
2023/07/10 06:32:23;;;;;;;;;3.00;2.00;;;;;-146.67;34.62;74256.34;5083393;27;61789;-82
2023/07/10 06:34:49;;;;;;;;;1.33;1.33;;;;;-146.67;34.76;74286.28;5083684;27;62445;-85
2023/07/10 06:37:14;;;;;;;;;2.00;2.00;;;;;-146.67;34.67;74312.25;5099647;27;61829;-85
2023/07/10 06:39:40;;;;;;;;;3.00;3.00;;;;;-146.67;34.48;74270.31;5076323;27;61679;-81
2023/07/10 06:42:05;;;;;;;;;4.00;2.50;;;;;-146.67;34.50;74304.25;5062808;28;61851;-81
2023/07/10 06:44:31;;;;;;;;;6.00;3.00;;;;;-146.67;35.00;74340.19;5062038;28;61779;-83
2023/07/10 06:46:56;;;;;;;;;6.33;2.67;;;;;-146.67;35.19;74368.16;5060990;28;62162;-79
2023/07/10 06:49:22;;;;;;;;;3.00;3.00;;;;;-146.67;35.69;74408.06;5062336;28;62154;-83
2023/07/10 06:51:47;;;;;;;;;3.67;2.67;;;;;-146.67;36.04;74457.97;5082065;27;62389;-82
2023/07/10 06:54:12;;;;;;;;;3.00;3.00;;;;;-146.67;36.22;74471.97;5082977;27;61983;-84
2023/07/10 06:56:38;;;;;;;;;4.50;2.75;;;;;-146.67;36.60;74487.94;5081327;27;61925;-83
2023/07/10 06:59:03;;;;;;;;;8.50;3.25;;;;;-146.67;36.54;74485.94;5080204;27;64813;-83
2023/07/10 07:01:29;;;;;;;;;2.67;2.67;;;;;-146.67;36.65;74481.94;5079654;28;62018;-83
2023/07/10 07:03:54;;;;;;;;;3.50;2.50;;;;;-146.67;36.45;74489.94;5081710;27;61959;-84
2023/07/10 07:06:20;;;;;;;;;6.75;4.75;;;;;-146.67;36.62;74493.91;5081628;27;61793;-84
2023/07/10 07:08:47;;;;;;;;;4.25;2.50;;;;;-146.67;36.60;74511.88;5080996;28;63690;-83
2023/07/10 07:11:12;;;;;;;;;3.75;2.75;;;;;-146.67;36.71;74509.88;5098506;27;62182;-83
2023/07/10 07:13:38;;;;;;;;;5.50;2.00;;;;;-146.67;36.88;74507.91;5098342;27;61854;-84
2023/07/10 07:16:04;;;;;;;;;5.00;2.75;;;;;-146.67;36.60;74487.94;5082758;27;62222;-84
2023/07/10 07:18:31;;;;;;;;;6.00;3.00;;;;;-146.67;36.64;74495.91;5097991;27;64777;-83
2023/07/10 07:20:57;;;;;;;;;5.50;3.00;;;;;-146.67;36.97;74513.88;5082359;27;61839;-83
2023/07/10 07:23:22;;;;;;;;;4.25;4.25;;;;;-146.67;37.12;74515.88;5080886;28;61907;-84
2023/07/10 07:25:48;;;;;;;;;3.00;3.00;;;;;-146.67;36.91;74501.91;5082768;28;61729;-84
2023/07/10 07:28:14;;;;;;;;;4.00;3.00;;;;;-146.67;36.59;74493.91;5082008;27;63172;-83
2023/07/10 07:30:40;;;;;;;;;2.75;2.75;;;;;-146.67;36.66;74501.91;5081265;28;62011;-83
2023/07/10 07:33:06;;;;;;;;;8.00;3.00;;;;;-146.67;36.90;74509.88;5082731;28;61971;-84
2023/07/10 07:35:36;;;;;;;;;4.50;1.50;;;;;-146.67;36.58;74507.91;5081459;27;62081;-83
2023/07/10 07:38:02;;;;;;;;;7.25;4.25;;;;;-146.67;36.70;74507.91;5097661;27;64736;-84
2023/07/10 07:40:27;;;;;;;;;2.00;2.00;;;;;-146.67;36.57;74511.88;5081101;28;61955;-83
2023/07/10 07:42:52;;;;;;;;;4.75;3.00;;;;;-146.67;36.79;74515.88;5098148;27;61868;-83
2023/07/10 07:45:18;;;;;;;;;3.25;2.25;;;;;-146.67;36.67;74511.88;5081040;28;61785;-83
2023/07/10 07:47:43;;;;;;;;;3.50;2.25;;;;;-146.67;36.83;74495.91;5080797;28;65090;-83
2023/07/10 07:50:09;;;;;;;;;4.67;2.00;;;;;-146.67;36.90;74499.91;5080725;27;61868;-83
2023/07/10 07:52:35;;;;;;;;;2.00;2.00;;;;;-146.67;36.62;74495.91;5098185;27;61924;-83
2023/07/10 07:55:00;;;;;;;;;1.00;1.00;;;;;-146.67;36.65;74493.91;5081306;28;61837;-83
2023/07/10 07:57:26;;;;;;;;;4.50;3.00;;;;;-146.67;36.48;74479.94;5081503;28;63193;-83
2023/07/10 07:59:52;;;;;;;;;3.67;2.00;;;;;-146.67;36.35;74481.94;5080752;27;61897;-83
2023/07/10 08:02:17;;;;;;;;;2.00;1.67;;;;;-146.67;36.51;74463.97;5098011;27;61771;-84
2023/07/10 08:04:43;;;;;;;;;1.67;1.67;;;;;-146.67;36.40;74456.00;5081008;27;61955;-83
2023/07/10 08:07:08;;;;;;;;;5.50;3.50;;;;;-146.67;36.13;74461.97;5080590;28;63805;-83
2023/07/10 08:09:34;;;;;;;;;2.67;2.33;;;;;-146.67;35.96;74461.97;5080848;27;61918;-83
2023/07/10 08:12:00;;;;;;;;;2.67;2.67;;;;;-146.67;36.07;74448.00;5080978;28;61970;-83
2023/07/10 08:14:25;;;;;;;;;1.33;1.33;;;;;-146.67;35.29;74444.00;5081718;27;61845;-83
2023/07/10 08:16:51;;;;;;;;;2.67;1.00;;;;;-146.67;34.78;74448.00;5097267;27;64763;-82
2023/07/10 08:19:17;;;;;;;;;3.00;1.67;;;;;-146.67;34.56;74434.03;5080616;28;61843;-83
2023/07/10 08:21:42;;;;;;;;;2.00;2.00;;;;;-146.67;35.15;74418.06;5081847;28;61714;-83
2023/07/10 08:24:08;;;;;;;;;2.00;1.00;;;;;-146.67;34.24;74416.06;5082448;28;61820;-83
2023/07/10 08:26:33;;;;;;;;;0.67;0.67;;;;;-146.67;33.76;74410.06;5096931;27;64770;-83
2023/07/10 08:29:24;;;;;;;;;1.67;1.67;;;;;-146.67;34.19;74430.03;5080528;27;61874;-83
2023/07/10 08:31:51;;;;;;;;;1.33;1.33;;;;;-146.67;34.45;74426.03;5082235;28;61953;-84
2023/07/10 08:34:16;;;;;;;;;0.67;0.67;;;;;-146.67;34.39;74416.06;5097824;27;62148;-83
2023/07/10 08:36:42;;;;;;;;;3.00;2.00;;;;;-146.67;34.10;74408.06;5083522;28;61879;-84
2023/07/10 08:39:07;;;;;;;;;1.00;1.00;;;;;-146.67;34.37;74396.09;5101266;27;61758;-83
2023/07/10 08:41:32;;;;;;;;;1.33;1.33;;;;;-146.67;34.14;74376.13;5083839;27;61724;-84
2023/07/10 08:43:58;;;;;;;;;5.33;2.00;;;;;-146.67;33.74;74366.16;5101062;27;61830;-84
2023/07/10 08:46:26;;;;;;;;;5.00;2.00;;;;;-146.67;34.31;74370.16;5083453;27;63762;-83
2023/07/10 08:49:00;;;;;;;;;2.00;2.00;;;;;-146.67;34.37;74358.16;5085188;27;62155;-83
2023/07/10 08:51:47;;;;;;;;;1.33;1.33;;;;;-146.67;34.41;74356.16;5083539;27;61830;-83
2023/07/10 08:54:18;;;;;;;;;3.00;1.67;;;;;-146.67;33.88;74348.19;5101009;27;61765;-84
2023/07/10 08:57:01;;;;;;;;;1.00;1.00;;;;;-146.67;34.23;74342.19;5099787;27;63892;-83
2023/07/10 08:59:32;;;;;;;;;1.33;1.33;;;;;-146.67;33.48;74344.19;5100452;27;61889;-83
2023/07/10 09:01:58;;;;;;;;;1.00;0.67;;;;;-146.67;32.92;74346.19;5085167;27;61811;-83
2023/07/10 09:04:25;;;;;;;;;2.00;1.00;;;;;-146.67;33.26;74356.16;5085436;27;62081;-83
2023/07/10 09:06:59;;;;;;;;;1.67;0.67;;;;;-146.67;33.33;74330.22;5099997;27;64217;-84
2023/07/10 09:10:00;;;;;;;;;0.67;0.67;;;;;-146.67;33.20;74312.25;5100685;27;61809;-84
2023/07/10 09:12:29;;;;;;;;;2.67;1.67;;;;;-146.67;32.88;74302.25;5081841;28;62074;-83
2023/07/10 09:15:13;;;;;;;;;1.00;1.00;;;;;-146.67;32.91;74300.28;5082319;28;61754;-83
2023/07/10 09:18:02;;;;;;;;;0.67;0.67;;;;;-146.67;32.56;74282.31;5081336;28;63633;-83
2023/07/10 09:20:58;;;;;;;;;3.33;2.00;;;;;-146.67;32.45;74284.28;5081638;28;61848;-83
2023/07/10 09:23:33;;;;;;;;;2.00;1.00;;;;;-146.67;32.23;74284.28;5048659;28;62011;-84
2023/07/10 09:26:08;;;;;;;;;3.67;1.33;;;;;-146.67;31.68;74282.31;5044724;28;61980;-83
2023/07/10 09:28:37;;;;;;;;;1.33;0.67;;;;;-146.67;32.02;74268.31;5061051;28;62675;-83
2023/07/10 09:31:08;;;;;;;;;1.33;0.33;;;;;-146.67;32.07;74254.34;5044952;28;62068;-84
2023/07/10 09:33:41;;;;;;;;;0.67;0.67;;;;;-146.67;31.98;74246.38;5044765;28;61932;-83
2023/07/10 09:36:16;;;;;;;;;0.67;0.67;;;;;-146.67;31.74;74238.38;5061890;28;61864;-83
2023/07/10 09:38:46;;;;;;;;;0.67;0.67;;;;;-146.67;31.80;74238.38;5043969;28;63781;-82
2023/07/10 09:41:23;;;;;;;;;1.00;0.67;;;;;-146.67;31.67;74232.41;5061360;28;62055;-83
2023/07/10 09:44:00;;;;;;;;;0.00;0.00;;;;;-146.67;31.57;74220.41;5061691;28;61864;-84
2023/07/10 09:46:35;;;;;;;;;1.33;1.33;;;;;-146.67;31.49;74200.44;5044596;28;62210;-84
2023/07/10 09:49:10;;;;;;;;;5.00;1.00;;;;;-146.67;31.14;74190.47;5060035;28;64139;-84
2023/07/10 09:51:37;;;;;;;;;0.00;0.00;;;;;-146.67;30.99;74178.50;5062308;28;61912;-84
2023/07/10 09:54:07;;;;;;;;;0.00;0.00;;;;;-146.67;30.95;74152.53;5062583;28;61849;-84
2023/07/10 09:56:37;;;;;;;;;1.00;1.00;;;;;-146.67;30.57;74148.56;5062328;28;61850;-84
2023/07/10 09:59:19;;;;;;;;;0.00;0.00;;;;;-146.67;30.66;74134.56;5063230;28;61734;-84
2023/07/10 10:01:47;;;;;;;;;2.00;0.67;;;;;-146.67;30.49;74130.59;5062328;28;61842;-84
2023/07/10 10:04:12;;;;;;;;;1.00;1.00;;;;;-146.67;29.98;74128.59;5062309;28;62026;-84
2023/07/10 10:06:41;;;;;;;;;2.00;1.00;;;;;-146.67;30.02;74122.59;5063971;28;61739;-84
2023/07/10 10:09:21;;;;;;;;;0.00;0.00;;;;;-146.67;30.00;74100.63;5063008;28;62177;-84
2023/07/10 10:11:51;;;;;;;;;3.67;0.33;;;;;-146.67;29.75;74098.66;5063331;28;61822;-84
2023/07/10 10:14:22;;;;;;;;;0.67;0.00;;;;;-146.67;30.07;74094.66;5062227;28;61965;-84
2023/07/10 10:16:55;;;;;;;;;1.00;0.00;;;;;-146.67;29.72;74090.66;5062057;28;62072;-84
2023/07/10 10:19:26;;;;;;;;;1.67;0.00;;;;;-146.67;29.57;74064.72;5061375;28;64745;-84
2023/07/10 10:21:52;;;;;;;;;1.33;0.67;;;;;-146.67;29.67;74058.72;5076012;27;61868;-84
2023/07/10 10:24:17;;;;;;;;;1.67;0.33;;;;;-146.67;29.24;74046.75;5083619;27;61788;-84
2023/07/10 10:27:01;;;;;;;;;0.33;0.33;;;;;-146.67;29.28;74026.78;5082355;27;62055;-84
2023/07/10 10:29:42;;;;;;;;;1.00;1.00;;;;;-146.67;28.84;74008.81;5081760;27;63731;-84
2023/07/10 10:32:26;;;;;;;;;1.00;1.00;;;;;-146.67;29.06;73996.84;5083467;27;61825;-84
2023/07/10 10:35:30;;;;;;;;;1.00;1.00;;;;;-146.67;29.15;73982.88;5083520;27;61840;-84
2023/07/10 10:38:09;;;;;;;;;2.00;1.00;;;;;-146.67;28.95;73954.91;5082077;27;61990;-84
2023/07/10 10:40:46;;;;;;;;;0.67;0.67;;;;;-146.67;28.85;73942.94;5081304;27;64111;-84
2023/07/10 10:43:31;;;;;;;;;1.00;1.00;;;;;-146.67;29.22;73911.00;5081826;27;61816;-83
2023/07/10 10:46:12;;;;;;;;;3.00;1.00;;;;;-146.67;28.56;73891.03;5081763;28;61934;-85
2023/07/10 10:48:59;;;;;;;;;0.00;0.00;;;;;-146.67;28.23;73871.06;5083493;28;61885;-84
2023/07/10 10:51:42;;;;;;;;;0.00;0.00;;;;;-146.67;27.90;73871.06;5082506;27;62096;-84
2023/07/10 10:54:16;;;;;;;;;1.00;0.00;;;;;-146.67;27.82;73873.06;5082437;27;61798;-83
2023/07/10 10:57:15;;;;;;;;;0.67;0.67;;;;;-146.67;27.89;73867.09;5081566;27;61909;-84
2023/07/10 10:59:56;;;;;;;;;0.00;0.00;;;;;-146.67;27.74;73833.16;5080843;27;61862;-84
2023/07/10 11:02:56;;;;;;;;;0.00;0.00;;;;;-146.67;27.43;73815.19;5082452;28;63310;-84
2023/07/10 11:05:31;;;;;;;;;1.00;1.00;;;;;-146.67;27.27;73815.19;5081612;27;61991;-83
2023/07/10 11:08:01;;;;;;;;;1.00;1.00;;;;;-146.67;27.43;73809.19;5081389;28;61978;-83
2023/07/10 11:10:33;;;;;;;;;2.67;1.00;;;;;-146.67;27.25;73793.22;5083318;27;62092;-83
2023/07/10 11:12:59;;;;;;;;;0.67;0.67;;;;;-146.67;27.18;73815.19;5080612;28;64880;-83
2023/07/10 11:15:27;;;;;;;;;0.00;0.00;;;;;-146.67;26.99;73795.22;5081503;27;61781;-84
2023/07/10 11:17:54;;;;;;;;;1.00;0.00;;;;;-146.67;27.28;73765.28;5081696;28;61825;-83
2023/07/10 11:20:22;;;;;;;;;1.00;0.33;;;;;-146.67;26.99;73753.31;5080924;28;62185;-84
2023/07/10 11:23:04;;;;;;;;;0.00;0.00;;;;;-146.67;26.74;73727.34;5097637;27;64927;-84
2023/07/10 11:25:42;;;;;;;;;0.67;0.33;;;;;-146.67;27.18;73687.44;5082990;27;61932;-84
2023/07/10 11:28:20;;;;;;;;;4.00;0.00;;;;;-146.67;26.62;73685.44;5098218;27;61847;-84
2023/07/10 11:31:05;;;;;;;;;1.00;0.67;;;;;-146.67;26.27;73657.50;5082965;27;61740;-84